createdAt,value
2023-02-16T00:00:44.424Z,5.90
2023-02-16T00:03:15.442Z,4.70
2023-02-16T00:05:43.455Z,6.00
2023-02-16T00:08:12.227Z,5.00
2023-02-16T00:10:41.049Z,6.30
2023-02-16T00:13:42.815Z,6.00
2023-02-16T00:16:18.638Z,6.80
2023-02-16T00:18:46.954Z,5.20
2023-02-16T00:21:15.304Z,4.50
2023-02-16T00:23:43.348Z,4.60
2023-02-16T00:26:19.510Z,4.60
2023-02-16T00:28:59.173Z,6.00
2023-02-16T00:31:32.038Z,6.30
2023-02-16T00:34:05.067Z,6.60
2023-02-16T00:36:34.284Z,7.50
2023-02-16T00:39:02.674Z,9.30
2023-02-16T00:41:51.006Z,6.00
2023-02-16T00:44:40.818Z,8.40
2023-02-16T00:47:18.953Z,8.80
2023-02-16T00:49:48.191Z,6.80
2023-02-16T00:52:31.315Z,6.20
2023-02-16T00:55:00.220Z,8.00
2023-02-16T00:57:28.814Z,6.70
2023-02-16T01:00:02.257Z,11.30
2023-02-16T01:02:30.934Z,9.70
2023-02-16T01:04:59.023Z,10.20
2023-02-16T01:07:45.864Z,8.60
2023-02-16T01:10:46.362Z,7.30
2023-02-16T01:13:14.985Z,7.90
2023-02-16T01:15:43.430Z,8.20
2023-02-16T01:18:15.846Z,8.40
2023-02-16T01:20:46.079Z,8.90
2023-02-16T01:23:14.716Z,8.60
2023-02-16T01:25:43.790Z,8.60
2023-02-16T01:28:21.424Z,9.70
2023-02-16T01:33:20.378Z,9.00
2023-02-16T01:35:50.929Z,7.60
2023-02-16T01:38:21.534Z,6.30
2023-02-16T01:41:22.455Z,6.70
2023-02-16T01:43:59.896Z,7.00
2023-02-16T01:46:38.960Z,11.90
2023-02-16T01:49:16.775Z,9.60
2023-02-16T01:54:43.655Z,8.40
2023-02-16T01:57:39.370Z,11.10
2023-02-16T02:00:13.817Z,8.10
2023-02-16T02:03:27.879Z,9.90
2023-02-16T02:05:55.805Z,9.00
2023-02-16T02:08:26.767Z,9.50
2023-02-16T02:11:22.772Z,8.10
2023-02-16T02:14:08.006Z,7.00
2023-02-16T02:16:36.801Z,9.10
2023-02-16T02:19:05.989Z,8.80
2023-02-16T02:22:41.723Z,9.40
2023-02-16T02:25:30.346Z,11.00
2023-02-16T02:28:34.255Z,6.70
2023-02-16T02:31:36.160Z,8.30
2023-02-16T02:34:09.257Z,9.90
2023-02-16T02:36:52.099Z,8.20
2023-02-16T02:39:43.552Z,7.20
2023-02-16T02:42:19.898Z,10.50
2023-02-16T02:44:57.304Z,11.80
2023-02-16T02:47:37.604Z,8.10
2023-02-16T02:50:25.214Z,7.90
2023-02-16T02:53:01.898Z,6.50
2023-02-16T02:55:49.211Z,10.10
2023-02-16T02:58:37.531Z,7.40
2023-02-16T03:01:06.872Z,6.80
2023-02-16T03:03:42.919Z,6.40
2023-02-16T03:06:19.335Z,8.20
2023-02-16T03:08:55.103Z,8.40
2023-02-16T03:11:42.857Z,7.00
2023-02-16T03:14:22.197Z,7.00
2023-02-16T03:17:11.876Z,7.40
2023-02-16T03:19:59.251Z,6.20
2023-02-16T03:22:45.930Z,8.80
2023-02-16T03:25:33.961Z,8.20
2023-02-16T03:28:21.748Z,7.60
2023-02-16T03:30:49.814Z,6.80
2023-02-16T03:33:18.001Z,8.10
2023-02-16T03:35:46.006Z,7.00
2023-02-16T03:38:14.502Z,6.50
2023-02-16T03:40:43.082Z,8.20
2023-02-16T03:43:11.362Z,7.00
2023-02-16T03:45:41.180Z,8.90
2023-02-16T03:48:09.835Z,5.80
2023-02-16T03:50:38.486Z,8.90
2023-02-16T03:53:07.655Z,8.00
2023-02-16T03:55:37.049Z,7.50
2023-02-16T03:58:06.811Z,8.80
2023-02-16T04:00:35.748Z,11.30
2023-02-16T04:03:04.134Z,7.10
2023-02-16T04:05:33.745Z,6.00
2023-02-16T04:08:01.935Z,9.50
2023-02-16T04:10:30.209Z,7.60
2023-02-16T04:12:58.626Z,7.30
2023-02-16T04:15:28.244Z,8.10
2023-02-16T04:18:00.410Z,6.70
2023-02-16T04:20:29.936Z,9.60
2023-02-16T04:22:59.576Z,8.30
2023-02-16T04:25:28.404Z,7.40
2023-02-16T04:27:56.824Z,8.40
2023-02-16T04:30:27.084Z,6.90
2023-02-16T04:32:55.166Z,7.70
2023-02-16T04:35:23.303Z,6.70
2023-02-16T04:37:51.455Z,7.70
2023-02-16T04:40:20.264Z,8.50
2023-02-16T04:42:48.161Z,6.70
2023-02-16T04:45:16.793Z,7.90
2023-02-16T04:47:44.970Z,7.20
2023-02-16T04:50:13.482Z,7.50
2023-02-16T04:52:42.484Z,7.40
2023-02-16T04:55:10.997Z,6.80
2023-02-16T04:57:39.517Z,7.40
2023-02-16T05:00:08.884Z,8.90
2023-02-16T05:02:36.991Z,6.80
2023-02-16T05:05:05.352Z,9.00
2023-02-16T05:07:33.949Z,6.90
2023-02-16T05:10:08.641Z,9.80
2023-02-16T05:12:55.473Z,7.90
2023-02-16T05:15:24.010Z,10.30
2023-02-16T05:17:52.044Z,7.70
2023-02-16T05:20:44.752Z,10.40
2023-02-16T05:23:13.595Z,13.70
2023-02-16T05:25:42.347Z,14.70
2023-02-16T05:28:10.994Z,10.00
2023-02-16T05:30:39.197Z,12.90
2023-02-16T05:33:07.281Z,9.40
2023-02-16T05:35:35.685Z,9.70
2023-02-16T05:38:04.080Z,11.00
2023-02-16T05:40:32.249Z,10.00
2023-02-16T05:43:00.248Z,9.10
2023-02-16T05:45:28.120Z,7.80
2023-02-16T05:47:56.828Z,11.80
2023-02-16T05:50:24.923Z,14.60
2023-02-16T05:52:53.029Z,9.90
2023-02-16T05:55:20.926Z,10.80
2023-02-16T05:57:50.698Z,10.20
2023-02-16T06:00:18.919Z,10.70
2023-02-16T06:02:47.745Z,11.00
2023-02-16T06:05:15.806Z,12.50
2023-02-16T06:07:45.550Z,11.90
2023-02-16T06:10:13.445Z,10.20
2023-02-16T06:12:43.225Z,9.30
2023-02-16T06:15:13.387Z,10.40
2023-02-16T06:17:41.464Z,9.60
2023-02-16T06:20:10.593Z,11.10
2023-02-16T06:22:39.088Z,9.70
2023-02-16T06:25:10.683Z,11.80
2023-02-16T06:27:39.471Z,15.00
2023-02-16T06:30:08.808Z,18.40
2023-02-16T06:32:38.325Z,16.90
2023-02-16T06:35:06.803Z,15.40
2023-02-16T06:37:34.780Z,17.90
2023-02-16T06:40:03.010Z,15.40
2023-02-16T06:42:31.092Z,16.40
2023-02-16T06:44:58.951Z,16.10
2023-02-16T06:47:27.755Z,16.10
2023-02-16T06:49:55.940Z,21.60
2023-02-16T06:52:24.055Z,15.90
2023-02-16T06:54:52.026Z,16.10
2023-02-16T06:57:19.884Z,19.20
2023-02-16T06:59:47.997Z,22.10
2023-02-16T07:02:15.847Z,22.40
2023-02-16T07:04:44.478Z,25.30
2023-02-16T07:07:12.710Z,24.10
2023-02-16T07:09:42.098Z,23.00
2023-02-16T07:12:09.991Z,22.10
2023-02-16T07:14:44.166Z,22.40
2023-02-16T07:17:12.407Z,37.60
2023-02-16T07:19:40.408Z,32.20
2023-02-16T07:22:08.415Z,26.60
2023-02-16T07:24:36.800Z,31.10
2023-02-16T07:27:05.463Z,24.70
2023-02-16T07:29:34.301Z,21.60
2023-02-16T07:32:05.607Z,23.80
2023-02-16T07:34:33.977Z,21.10
2023-02-16T07:37:01.861Z,22.00
2023-02-16T07:39:30.943Z,23.20
2023-02-16T07:41:58.836Z,18.80
2023-02-16T07:44:27.823Z,15.30
2023-02-16T07:46:55.723Z,15.60
2023-02-16T07:49:23.741Z,12.50
2023-02-16T07:51:52.305Z,14.10
2023-02-16T07:54:20.264Z,13.40
2023-02-16T07:56:48.178Z,14.10
2023-02-16T07:59:17.013Z,17.40
2023-02-16T08:01:44.898Z,12.40
2023-02-16T08:04:12.867Z,15.90
2023-02-16T08:06:41.475Z,14.90
2023-02-16T08:09:09.479Z,13.50
2023-02-16T08:11:40.067Z,15.20
2023-02-16T08:14:08.375Z,15.50
2023-02-16T08:16:37.019Z,14.50
2023-02-16T08:19:05.274Z,17.00
2023-02-16T08:21:34.502Z,19.30
2023-02-16T08:24:06.825Z,18.50
2023-02-16T08:26:39.643Z,17.60
2023-02-16T08:29:10.290Z,19.10
2023-02-16T08:31:39.548Z,21.20
2023-02-16T08:34:07.595Z,19.40
2023-02-16T08:36:38.606Z,25.50
2023-02-16T08:39:12.807Z,21.40
2023-02-16T08:41:41.260Z,18.00
2023-02-16T08:44:09.793Z,20.60
2023-02-16T08:46:40.173Z,15.50
2023-02-16T08:49:08.969Z,15.20
2023-02-16T08:51:38.573Z,21.40
2023-02-16T08:54:17.256Z,13.80
2023-02-16T08:56:47.792Z,12.10
2023-02-16T08:59:16.679Z,17.00
2023-02-16T09:01:44.989Z,13.20
2023-02-16T09:04:13.601Z,13.00
2023-02-16T09:06:44.450Z,11.20
2023-02-16T09:09:13.075Z,11.20
2023-02-16T09:11:41.070Z,8.60
2023-02-16T09:14:09.550Z,8.90
2023-02-16T09:16:43.904Z,13.00
2023-02-16T09:19:15.046Z,15.10
2023-02-16T09:21:43.355Z,14.40
2023-02-16T09:24:11.701Z,10.00
2023-02-16T09:26:57.326Z,9.50
2023-02-16T09:29:25.452Z,6.70
2023-02-16T09:31:54.618Z,9.20
2023-02-16T09:34:22.727Z,11.40
2023-02-16T09:36:50.999Z,9.90
2023-02-16T09:39:19.222Z,8.40
2023-02-16T09:42:20.816Z,13.00
2023-02-16T09:45:11.775Z,16.00
2023-02-16T09:47:42.088Z,11.20
2023-02-16T09:50:27.823Z,25.60
2023-02-16T09:53:20.188Z,16.80
2023-02-16T09:56:20.182Z,14.60
2023-02-16T09:58:51.936Z,10.10
2023-02-16T10:01:35.060Z,9.20
2023-02-16T10:04:18.702Z,9.10
2023-02-16T10:07:12.071Z,9.50
2023-02-16T10:09:42.417Z,11.00
2023-02-16T10:12:19.485Z,7.70
2023-02-16T10:14:52.924Z,8.00
2023-02-16T10:17:29.778Z,9.40
2023-02-16T10:20:35.771Z,7.70
2023-02-16T10:23:20.388Z,10.50
2023-02-16T10:25:59.051Z,13.30
2023-02-16T10:28:43.271Z,9.60
2023-02-16T10:31:14.042Z,9.00
2023-02-16T10:33:54.696Z,7.50
2023-02-16T10:36:35.060Z,10.80
2023-02-16T10:39:09.933Z,10.80
2023-02-16T10:41:40.697Z,9.40
2023-02-16T10:44:14.782Z,10.10
2023-02-16T10:46:44.595Z,8.70
2023-02-16T10:49:14.210Z,10.30
2023-02-16T10:51:45.403Z,8.70
2023-02-16T10:54:17.581Z,8.40
2023-02-16T10:57:08.260Z,10.60
2023-02-16T10:59:39.901Z,8.20
2023-02-16T11:02:23.703Z,5.70
2023-02-16T11:04:56.814Z,10.20
2023-02-16T11:07:27.088Z,9.10
2023-02-16T11:09:56.580Z,8.20
2023-02-16T11:12:29.991Z,9.00
2023-02-16T11:15:06.136Z,11.10
2023-02-16T11:17:52.599Z,6.00
2023-02-16T11:20:45.016Z,9.30
2023-02-16T11:23:24.783Z,7.70
2023-02-16T11:26:12.519Z,7.60
2023-02-16T11:28:45.907Z,12.30
2023-02-16T11:31:23.503Z,8.60
2023-02-16T11:34:00.215Z,9.60
2023-02-16T11:36:48.303Z,6.00
2023-02-16T11:39:25.930Z,9.60
2023-02-16T11:41:57.272Z,8.50
2023-02-16T11:44:35.737Z,10.70
2023-02-16T11:47:09.099Z,8.50
2023-02-16T11:49:39.139Z,7.40
2023-02-16T11:52:26.412Z,6.80
2023-02-16T11:54:57.989Z,11.20
2023-02-16T11:57:33.933Z,10.40
2023-02-16T12:00:13.944Z,9.80
2023-02-16T12:02:51.926Z,10.10
2023-02-16T12:05:58.768Z,8.40
2023-02-16T12:08:36.061Z,10.50
2023-02-16T12:11:25.575Z,7.10
2023-02-16T12:14:15.913Z,10.60
2023-02-16T12:17:13.425Z,11.40
2023-02-16T12:19:45.859Z,10.40
2023-02-16T12:22:14.872Z,12.30
2023-02-16T12:25:08.511Z,9.00
2023-02-16T12:27:51.650Z,8.80
2023-02-16T12:31:38.814Z,11.00
2023-02-16T12:34:07.485Z,11.00
2023-02-16T12:36:43.986Z,8.90
2023-02-16T12:39:17.360Z,8.20
2023-02-16T12:41:54.442Z,9.70
2023-02-16T12:44:31.186Z,10.00
2023-02-16T12:47:06.415Z,11.70
2023-02-16T12:49:37.385Z,8.20
2023-02-16T12:52:13.141Z,11.70
2023-02-16T12:54:44.261Z,9.30
2023-02-16T12:57:16.153Z,10.60
2023-02-16T12:59:49.053Z,10.90
2023-02-16T13:02:23.376Z,10.70
2023-02-16T13:05:03.670Z,14.60
2023-02-16T13:07:32.990Z,11.60
2023-02-16T13:10:19.797Z,13.40
2023-02-16T13:12:50.289Z,13.10
2023-02-16T13:15:26.126Z,10.80
2023-02-16T13:17:57.567Z,8.90
2023-02-16T13:20:27.695Z,11.60
2023-02-16T13:22:55.716Z,9.50
2023-02-16T13:25:38.937Z,11.00
2023-02-16T13:28:11.719Z,9.40
2023-02-16T13:30:40.266Z,11.60
2023-02-16T13:33:08.428Z,12.20
2023-02-16T13:35:36.632Z,12.10
2023-02-16T13:38:04.399Z,15.00
2023-02-16T13:40:48.268Z,15.20
2023-02-16T13:43:19.496Z,15.50
2023-02-16T13:45:47.577Z,17.70
2023-02-16T13:48:16.522Z,14.80
2023-02-16T13:50:47.132Z,17.60
2023-02-16T13:53:18.614Z,14.50
2023-02-16T13:55:47.430Z,18.20
2023-02-16T13:58:16.337Z,13.30
2023-02-16T14:00:47.764Z,14.50
2023-02-16T14:03:21.832Z,14.70
2023-02-16T14:05:52.189Z,16.30
2023-02-16T14:08:29.861Z,14.50
2023-02-16T14:11:05.788Z,11.50
2023-02-16T14:13:36.969Z,13.20
2023-02-16T14:16:08.229Z,12.90
2023-02-16T14:18:39.918Z,15.60
2023-02-16T14:21:16.614Z,15.70
2023-02-16T14:23:44.412Z,12.80
2023-02-16T14:26:14.981Z,14.70
2023-02-16T14:28:52.120Z,14.60
2023-02-16T14:31:22.836Z,12.90
2023-02-16T14:34:05.821Z,15.00
2023-02-16T14:36:34.815Z,12.70
2023-02-16T14:39:02.922Z,12.70
2023-02-16T14:41:30.847Z,14.40
2023-02-16T14:44:08.756Z,13.70
2023-02-16T14:49:06.650Z,14.80
2023-02-16T14:51:46.960Z,16.40
2023-02-16T14:54:21.939Z,13.20
2023-02-16T14:56:54.174Z,13.60
2023-02-16T14:59:22.119Z,14.40
2023-02-16T15:01:50.397Z,13.30
2023-02-16T15:04:28.449Z,14.30
2023-02-16T15:06:57.152Z,14.00
2023-02-16T15:09:25.945Z,13.90
2023-02-16T15:12:17.826Z,13.20
2023-02-16T15:14:48.035Z,12.00
2023-02-16T15:17:28.254Z,12.20
2023-02-16T15:19:57.084Z,12.70
2023-02-16T15:22:25.958Z,12.60
2023-02-16T15:24:54.995Z,17.10
2023-02-16T15:27:23.553Z,17.00
2023-02-16T15:30:24.280Z,13.90
2023-02-16T15:32:53.542Z,16.10
2023-02-16T15:35:22.930Z,14.30
2023-02-16T15:37:59.409Z,12.30
2023-02-16T15:40:29.769Z,14.00
2023-02-16T15:43:00.787Z,12.80
2023-02-16T15:45:32.984Z,14.50
2023-02-16T15:48:14.590Z,16.30
2023-02-16T15:50:43.619Z,13.70
2023-02-16T15:53:14.975Z,14.10
2023-02-16T15:55:45.850Z,13.60
2023-02-16T15:58:14.851Z,14.20
2023-02-16T16:00:43.846Z,17.20
2023-02-16T16:03:15.707Z,11.80
2023-02-16T16:05:53.284Z,16.50
2023-02-16T16:08:21.880Z,11.50
2023-02-16T16:10:49.801Z,14.30
2023-02-16T16:13:18.457Z,17.60
2023-02-16T16:15:47.326Z,13.90
2023-02-16T16:18:37.539Z,14.50
2023-02-16T16:21:13.419Z,12.20
2023-02-16T16:23:52.139Z,16.80
2023-02-16T16:26:20.686Z,14.90
2023-02-16T16:28:48.635Z,15.30
2023-02-16T16:31:22.780Z,15.50
2023-02-16T16:33:54.812Z,14.20
2023-02-16T16:36:33.410Z,14.40
2023-02-16T16:39:18.940Z,17.50
2023-02-16T16:42:09.961Z,13.90
2023-02-16T16:44:38.751Z,15.10
2023-02-16T16:47:25.773Z,14.70
2023-02-16T16:49:57.975Z,14.70
2023-02-16T16:52:29.916Z,12.50
2023-02-16T16:54:59.402Z,12.40
2023-02-16T16:57:27.992Z,13.40
2023-02-16T16:59:56.831Z,17.20
2023-02-16T17:02:25.037Z,15.20
2023-02-16T17:04:56.356Z,14.50
2023-02-16T17:07:24.205Z,14.40
2023-02-16T17:09:52.202Z,12.40
2023-02-16T17:12:20.686Z,14.90
2023-02-16T17:14:51.646Z,15.20
2023-02-16T17:17:19.717Z,15.90
2023-02-16T17:19:47.806Z,15.50
2023-02-16T17:22:17.002Z,14.10
2023-02-16T17:24:45.164Z,13.00
2023-02-16T17:27:13.312Z,16.40
2023-02-16T17:29:43.172Z,14.60
2023-02-16T17:32:11.657Z,16.50
2023-02-16T17:34:39.842Z,15.40
2023-02-16T17:37:07.994Z,15.90
2023-02-16T17:39:36.503Z,17.40
2023-02-16T17:42:04.513Z,16.40
2023-02-16T17:44:33.730Z,16.70
2023-02-16T17:47:01.814Z,16.90
2023-02-16T17:49:29.743Z,17.40
2023-02-16T17:51:57.726Z,15.60
2023-02-16T17:54:25.760Z,16.90
2023-02-16T17:56:53.870Z,15.70
2023-02-16T17:59:22.341Z,17.40
2023-02-16T18:01:52.387Z,14.10
2023-02-16T18:04:21.033Z,18.00
2023-02-16T18:06:49.199Z,19.20
2023-02-16T18:09:20.633Z,17.90
2023-02-16T18:11:49.092Z,14.70
2023-02-16T18:14:17.053Z,15.90
2023-02-16T18:16:45.234Z,20.70
2023-02-16T18:19:16.367Z,15.50
2023-02-16T18:21:44.985Z,18.70
2023-02-16T18:24:13.271Z,23.20
2023-02-16T18:26:41.156Z,18.90
2023-02-16T18:29:10.001Z,22.40
2023-02-16T18:31:40.532Z,20.10
2023-02-16T18:34:09.545Z,19.90
2023-02-16T18:36:37.491Z,22.40
2023-02-16T18:39:05.997Z,22.60
2023-02-16T18:41:34.419Z,19.20
2023-02-16T18:44:03.177Z,18.80
2023-02-16T18:46:31.336Z,16.50
2023-02-16T18:48:59.325Z,17.50
2023-02-16T18:51:29.470Z,18.50
2023-02-16T18:53:57.667Z,16.20
2023-02-16T18:56:25.741Z,14.90
2023-02-16T18:58:53.920Z,15.70
2023-02-16T19:01:25.769Z,16.30
2023-02-16T19:03:55.972Z,17.30
2023-02-16T19:06:24.140Z,19.50
2023-02-16T19:08:52.423Z,21.60
2023-02-16T19:11:22.080Z,17.50
2023-02-16T19:13:50.042Z,16.50
2023-02-16T19:16:19.625Z,20.20
2023-02-16T19:18:47.757Z,18.40
2023-02-16T19:21:15.862Z,15.50
2023-02-16T19:23:43.944Z,22.00
2023-02-16T19:26:12.962Z,23.40
2023-02-16T19:28:41.144Z,22.90
2023-02-16T19:31:09.545Z,21.40
2023-02-16T19:33:38.335Z,17.80
2023-02-16T19:36:07.336Z,17.20
2023-02-16T19:38:35.768Z,18.60
2023-02-16T19:41:14.008Z,17.50
2023-02-16T19:43:42.330Z,14.40
2023-02-16T19:46:10.485Z,17.00
2023-02-16T19:48:38.542Z,15.90
2023-02-16T19:51:07.026Z,19.70
2023-02-16T19:53:36.791Z,16.60
2023-02-16T19:56:05.681Z,19.80
2023-02-16T19:58:33.972Z,16.50
2023-02-16T20:01:07.989Z,19.30
2023-02-16T20:03:35.865Z,19.60
2023-02-16T20:06:20.631Z,16.80
2023-02-16T20:08:48.954Z,17.90
2023-02-16T20:11:17.361Z,18.10
2023-02-16T20:13:45.345Z,16.10
2023-02-16T20:16:14.118Z,17.20
2023-02-16T20:18:42.127Z,23.60
2023-02-16T20:21:11.756Z,23.50
2023-02-16T20:23:39.808Z,20.60
2023-02-16T20:26:09.593Z,23.30
2023-02-16T20:28:39.067Z,24.40
2023-02-16T20:31:10.832Z,26.80
2023-02-16T20:33:39.219Z,22.90
2023-02-16T20:36:07.405Z,22.90
2023-02-16T20:38:37.307Z,22.00
2023-02-16T20:41:05.340Z,19.80
2023-02-16T20:43:34.387Z,28.40
2023-02-16T20:46:02.980Z,23.70
2023-02-16T20:48:31.181Z,24.80
2023-02-16T20:51:00.114Z,21.40
2023-02-16T20:53:29.410Z,19.40
2023-02-16T20:56:05.765Z,18.40
2023-02-16T20:58:34.234Z,17.40
2023-02-16T21:01:02.198Z,20.30
2023-02-16T21:03:30.261Z,17.70
2023-02-16T21:05:58.549Z,16.40
2023-02-16T21:08:26.324Z,16.90
2023-02-16T21:10:54.817Z,18.10
2023-02-16T21:13:23.548Z,21.40
2023-02-16T21:15:51.957Z,17.90
2023-02-16T21:18:19.948Z,18.90
2023-02-16T21:20:47.943Z,20.00
2023-02-16T21:23:15.875Z,20.10
2023-02-16T21:25:43.661Z,19.80
2023-02-16T21:28:12.148Z,22.00
2023-02-16T21:30:40.532Z,18.80
2023-02-16T21:33:08.930Z,19.80
2023-02-16T21:35:37.132Z,20.10
2023-02-16T21:38:09.147Z,19.90
2023-02-16T21:40:55.960Z,20.30
2023-02-16T21:43:23.830Z,19.00
2023-02-16T21:45:58.719Z,20.90
2023-02-16T21:48:45.315Z,17.50
2023-02-16T21:51:14.240Z,20.80
2023-02-16T21:53:42.198Z,21.40
2023-02-16T21:56:28.271Z,21.60
2023-02-16T21:58:57.172Z,22.70
2023-02-16T22:01:29.680Z,21.50
2023-02-16T22:03:59.363Z,19.40
2023-02-16T22:06:32.411Z,23.30
2023-02-16T22:09:00.827Z,21.20
2023-02-16T22:11:29.841Z,19.20
2023-02-16T22:13:58.545Z,21.70
2023-02-16T22:16:28.732Z,23.10
2023-02-16T22:19:00.209Z,20.10
2023-02-16T22:21:28.229Z,21.40
2023-02-16T22:23:57.008Z,20.90
2023-02-16T22:26:25.879Z,22.50
2023-02-16T22:28:54.536Z,19.50
2023-02-16T22:31:23.317Z,19.00
2023-02-16T22:33:55.096Z,19.80
2023-02-16T22:36:23.018Z,22.50
2023-02-16T22:38:51.278Z,20.30
2023-02-16T22:41:19.077Z,21.40
2023-02-16T22:43:47.183Z,18.00
2023-02-16T22:46:16.003Z,25.50
2023-02-16T22:48:45.008Z,18.60
2023-02-16T22:51:13.615Z,26.20
2023-02-16T22:53:41.484Z,20.20
2023-02-16T22:56:10.837Z,24.80
2023-02-16T22:58:38.693Z,19.40
2023-02-16T23:01:13.415Z,23.40
2023-02-16T23:03:49.858Z,23.80
2023-02-16T23:06:19.006Z,21.70
2023-02-16T23:08:47.171Z,23.00
2023-02-16T23:11:15.821Z,21.10
2023-02-16T23:13:44.734Z,21.30
2023-02-16T23:16:14.769Z,20.70
2023-02-16T23:18:42.668Z,21.40
2023-02-16T23:21:15.139Z,22.50
2023-02-16T23:23:43.356Z,21.40
2023-02-16T23:26:13.613Z,20.50
2023-02-16T23:28:42.583Z,22.50
2023-02-16T23:31:12.740Z,25.80
2023-02-16T23:33:41.089Z,19.20
2023-02-16T23:36:09.067Z,19.60
2023-02-16T23:38:37.605Z,20.90
2023-02-16T23:41:06.770Z,23.60
2023-02-16T23:43:36.126Z,20.70
2023-02-16T23:46:04.580Z,24.20
2023-02-16T23:48:33.629Z,25.50
2023-02-16T23:51:02.858Z,19.60
2023-02-16T23:53:30.948Z,23.00
2023-02-16T23:55:59.430Z,24.90
2023-02-16T23:58:28.113Z,24.60
